AAL282 KBNA-KDFW
Flight info
| Callsign | AAL282 |
|---|---|
| Flight time | N/A |
| Altitude | 34000 |
| Route | DANLS4 TPEEE LIT FEWWW SEEVR4 |
| Aircraft | A321/M-SDE3FGHIRWY/LB1 |
Departure
| Time | 2026-05-05 05:26 |
|---|---|
| Airport | Nashville International Airport (KBNA) |
Arrival
| Time | N/A |
|---|---|
| Airport | Dallas Fort Worth International Airport (KDFW) |
| Time | Latitude | Longitude | Altitude | Speed | Heading |
|---|---|---|---|---|---|
| 2026-05-05 05:10 | 36.12923 | -86.67132 | 569 ft | 0 kts | 118° |
| 2026-05-05 05:17 | 36.12928 | -86.67142 | 572 ft | 4 kts | 122° |
| 2026-05-05 05:17 | 36.12945 | -86.67167 | 572 ft | 4 kts | 145° |
| 2026-05-05 05:17 | 36.12968 | -86.67180 | 571 ft | 4 kts | 179° |
| 2026-05-05 05:17 | 36.12991 | -86.67172 | 571 ft | 2 kts | 222° |
| 2026-05-05 05:18 | 36.12993 | -86.67170 | 571 ft | 0 kts | 224° |
| 2026-05-05 05:19 | 36.12984 | -86.67181 | 577 ft | 7 kts | 224° |
| 2026-05-05 05:19 | 36.12948 | -86.67224 | 571 ft | 12 kts | 224° |
| 2026-05-05 05:20 | 36.12851 | -86.67219 | 571 ft | 12 kts | 134° |
| 2026-05-05 05:20 | 36.12812 | -86.67167 | 569 ft | 13 kts | 133° |
| 2026-05-05 05:20 | 36.12753 | -86.67082 | 569 ft | 13 kts | 130° |
| 2026-05-05 05:20 | 36.12692 | -86.66993 | 575 ft | 14 kts | 130° |
| 2026-05-05 05:21 | 36.12630 | -86.66904 | 575 ft | 13 kts | 137° |
| 2026-05-05 05:21 | 36.12552 | -86.66908 | 572 ft | 12 kts | 207° |
| 2026-05-05 05:21 | 36.12467 | -86.66957 | 572 ft | 14 kts | 183° |
| 2026-05-05 05:21 | 36.12388 | -86.66878 | 573 ft | 16 kts | 133° |
| 2026-05-05 05:22 | 36.12336 | -86.66760 | 573 ft | 16 kts | 105° |
| 2026-05-05 05:22 | 36.12304 | -86.66623 | 575 ft | 18 kts | 108° |
| 2026-05-05 05:22 | 36.12286 | -86.66530 | 569 ft | 11 kts | 79° |
| 2026-05-05 05:22 | 36.12355 | -86.66477 | 567 ft | 14 kts | 17° |
| 2026-05-05 05:23 | 36.12464 | -86.66434 | 570 ft | 18 kts | 18° |
| 2026-05-05 05:23 | 36.12581 | -86.66387 | 567 ft | 18 kts | 18° |
| 2026-05-05 05:23 | 36.12700 | -86.66340 | 569 ft | 19 kts | 18° |
| 2026-05-05 05:23 | 36.12833 | -86.66287 | 561 ft | 21 kts | 18° |
| 2026-05-05 05:24 | 36.12978 | -86.66228 | 561 ft | 22 kts | 18° |
| 2026-05-05 05:24 | 36.13108 | -86.66177 | 560 ft | 17 kts | 18° |
| 2026-05-05 05:24 | 36.13223 | -86.66131 | 556 ft | 18 kts | 18° |
| 2026-05-05 05:24 | 36.13328 | -86.66089 | 553 ft | 14 kts | 18° |
| 2026-05-05 05:25 | 36.13369 | -86.65998 | 557 ft | 14 kts | 105° |
| 2026-05-05 05:25 | 36.13299 | -86.65958 | 549 ft | 13 kts | 196° |
| 2026-05-05 05:25 | 36.13238 | -86.65982 | 550 ft | 34 kts | 198° |
| 2026-05-05 05:25 | 36.12771 | -86.66170 | 565 ft | 104 kts | 198° |
| 2026-05-05 05:26 | 36.11889 | -86.66522 | 586 ft | 160 kts | 198° |
| 2026-05-05 05:26 | 36.10818 | -86.66968 | 1292 ft | 159 kts | 201° |
| 2026-05-05 05:26 | 36.09913 | -86.67699 | 2123 ft | 156 kts | 226° |
| 2026-05-05 05:26 | 36.09370 | -86.68868 | 2704 ft | 161 kts | 242° |
| 2026-05-05 05:27 | 36.08890 | -86.70202 | 2860 ft | 178 kts | 243° |
| 2026-05-05 05:27 | 36.08372 | -86.71673 | 2980 ft | 197 kts | 243° |
| 2026-05-05 05:27 | 36.07155 | -86.75147 | 3575 ft | 236 kts | 244° |
| 2026-05-05 05:28 | 36.06676 | -86.77104 | 4223 ft | 245 kts | 263° |
| 2026-05-05 05:28 | 36.06948 | -86.79222 | 4930 ft | 253 kts | 278° |
| 2026-05-05 05:28 | 36.07385 | -86.81345 | 5629 ft | 256 kts | 278° |
| 2026-05-05 05:28 | 36.07836 | -86.83490 | 6259 ft | 260 kts | 279° |
| 2026-05-05 05:29 | 36.08293 | -86.85669 | 6800 ft | 265 kts | 279° |
| 2026-05-05 05:29 | 36.08737 | -86.87845 | 6937 ft | 263 kts | 276° |
| 2026-05-05 05:29 | 36.08883 | -86.90086 | 7204 ft | 262 kts | 268° |
| 2026-05-05 05:29 | 36.08956 | -86.92341 | 7917 ft | 263 kts | 269° |
| 2026-05-05 05:30 | 36.09031 | -86.94610 | 8580 ft | 266 kts | 269° |
| 2026-05-05 05:30 | 36.09110 | -86.96913 | 9218 ft | 270 kts | 270° |
| 2026-05-05 05:30 | 36.09190 | -86.99246 | 9845 ft | 273 kts | 271° |
| 2026-05-05 05:30 | 36.09273 | -87.01621 | 10258 ft | 284 kts | 271° |
| 2026-05-05 05:31 | 36.09359 | -87.04122 | 10385 ft | 305 kts | 271° |
| 2026-05-05 05:31 | 36.09452 | -87.06827 | 10522 ft | 324 kts | 272° |
| 2026-05-05 05:31 | 36.09549 | -87.09656 | 10905 ft | 333 kts | 272° |
| 2026-05-05 05:31 | 36.09645 | -87.12536 | 11442 ft | 337 kts | 272° |
| 2026-05-05 05:32 | 36.09738 | -87.15414 | 11995 ft | 341 kts | 272° |
| 2026-05-05 05:32 | 36.09832 | -87.18357 | 12555 ft | 344 kts | 272° |
| 2026-05-05 05:32 | 36.09854 | -87.21330 | 13110 ft | 348 kts | 266° |
| 2026-05-05 05:32 | 36.09446 | -87.24296 | 13650 ft | 353 kts | 257° |
| 2026-05-05 05:33 | 36.08843 | -87.27294 | 14171 ft | 356 kts | 257° |
| 2026-05-05 05:33 | 36.08250 | -87.30232 | 14708 ft | 358 kts | 257° |
| 2026-05-05 05:33 | 36.07637 | -87.33256 | 15275 ft | 359 kts | 257° |
| 2026-05-05 05:33 | 36.07035 | -87.36227 | 15843 ft | 361 kts | 257° |
| 2026-05-05 05:34 | 36.06424 | -87.39245 | 16405 ft | 363 kts | 257° |
| 2026-05-05 05:34 | 36.05813 | -87.42278 | 16966 ft | 364 kts | 257° |
| 2026-05-05 05:34 | 36.05198 | -87.45331 | 17522 ft | 366 kts | 257° |
| 2026-05-05 05:34 | 36.04580 | -87.48390 | 18081 ft | 368 kts | 257° |
| 2026-05-05 05:35 | 36.03957 | -87.51462 | 18562 ft | 370 kts | 257° |
| 2026-05-05 05:35 | 36.03328 | -87.54561 | 19043 ft | 372 kts | 257° |
| 2026-05-05 05:35 | 36.02698 | -87.57672 | 19520 ft | 373 kts | 257° |
| 2026-05-05 05:35 | 36.02063 | -87.60794 | 20000 ft | 375 kts | 257° |
| 2026-05-05 05:36 | 36.01424 | -87.63926 | 20477 ft | 377 kts | 257° |
| 2026-05-05 05:36 | 36.00779 | -87.67075 | 20946 ft | 379 kts | 257° |
| 2026-05-05 05:36 | 36.00129 | -87.70242 | 21413 ft | 381 kts | 257° |
| 2026-05-05 05:36 | 35.99476 | -87.73421 | 21857 ft | 383 kts | 257° |
| 2026-05-05 05:37 | 35.98817 | -87.76620 | 22287 ft | 385 kts | 257° |
| 2026-05-05 05:37 | 35.98156 | -87.79829 | 22715 ft | 387 kts | 257° |
| 2026-05-05 05:37 | 35.97493 | -87.83051 | 23128 ft | 389 kts | 258° |
| 2026-05-05 05:37 | 35.96827 | -87.86292 | 23530 ft | 391 kts | 258° |
| 2026-05-05 05:38 | 35.96154 | -87.89557 | 23874 ft | 392 kts | 258° |
| 2026-05-05 05:38 | 35.95479 | -87.92827 | 24224 ft | 394 kts | 258° |
| 2026-05-05 05:38 | 35.94800 | -87.96099 | 24572 ft | 395 kts | 258° |
| 2026-05-05 05:38 | 35.94115 | -87.99396 | 24914 ft | 396 kts | 258° |
| 2026-05-05 05:39 | 35.93430 | -88.02694 | 25247 ft | 398 kts | 258° |
| 2026-05-05 05:39 | 35.92741 | -88.06003 | 25588 ft | 399 kts | 258° |
| 2026-05-05 05:39 | 35.92050 | -88.09321 | 25918 ft | 400 kts | 258° |
| 2026-05-05 05:39 | 35.91357 | -88.12651 | 26268 ft | 401 kts | 258° |
| 2026-05-05 05:40 | 35.90661 | -88.15984 | 26621 ft | 402 kts | 258° |
| 2026-05-05 05:40 | 35.89963 | -88.19328 | 26940 ft | 403 kts | 258° |
| 2026-05-05 05:40 | 35.89263 | -88.22673 | 27261 ft | 404 kts | 258° |
| 2026-05-05 05:40 | 35.88578 | -88.25988 | 27568 ft | 404 kts | 261° |
| 2026-05-05 05:41 | 35.88200 | -88.29410 | 27861 ft | 403 kts | 268° |
| 2026-05-05 05:41 | 35.87975 | -88.32864 | 28159 ft | 404 kts | 268° |
| 2026-05-05 05:41 | 35.87746 | -88.36330 | 28458 ft | 405 kts | 268° |
| 2026-05-05 05:41 | 35.87512 | -88.39796 | 28749 ft | 406 kts | 268° |
| 2026-05-05 05:42 | 35.87275 | -88.43269 | 29047 ft | 407 kts | 268° |
| 2026-05-05 05:42 | 35.87034 | -88.46758 | 29347 ft | 409 kts | 268° |
| 2026-05-05 05:42 | 35.86790 | -88.50246 | 29683 ft | 409 kts | 268° |
| 2026-05-05 05:42 | 35.86545 | -88.53736 | 30041 ft | 407 kts | 268° |
| 2026-05-05 05:43 | 35.86301 | -88.57204 | 30433 ft | 404 kts | 269° |
| 2026-05-05 05:43 | 35.86058 | -88.60634 | 30841 ft | 401 kts | 269° |
| 2026-05-05 05:43 | 35.85817 | -88.64046 | 31243 ft | 397 kts | 269° |
| 2026-05-05 05:43 | 35.85579 | -88.67425 | 31644 ft | 394 kts | 270° |
| 2026-05-05 05:44 | 35.85343 | -88.70772 | 32047 ft | 391 kts | 270° |
| 2026-05-05 05:44 | 35.85107 | -88.74096 | 32441 ft | 387 kts | 270° |
| 2026-05-05 05:44 | 35.84871 | -88.77393 | 32829 ft | 384 kts | 271° |
| 2026-05-05 05:44 | 35.84636 | -88.80660 | 33217 ft | 381 kts | 271° |
| 2026-05-05 05:45 | 35.84344 | -88.83899 | 33587 ft | 382 kts | 266° |
| 2026-05-05 05:45 | 35.83672 | -88.87081 | 33869 ft | 388 kts | 261° |
| 2026-05-05 05:45 | 35.81831 | -88.93257 | 33936 ft | 380 kts | 261° |
| 2026-05-05 05:46 | 35.80018 | -88.99358 | 33939 ft | 378 kts | 261° |
| 2026-05-05 05:46 | 35.78227 | -89.05412 | 33940 ft | 378 kts | 261° |
| 2026-05-05 05:47 | 35.76439 | -89.11451 | 33914 ft | 378 kts | 261° |
| 2026-05-05 05:47 | 35.74627 | -89.17519 | 33901 ft | 378 kts | 261° |
| 2026-05-05 05:48 | 35.72815 | -89.23578 | 33922 ft | 377 kts | 262° |
| 2026-05-05 05:48 | 35.71008 | -89.29602 | 33939 ft | 374 kts | 262° |
| 2026-05-05 05:49 | 35.69209 | -89.35580 | 33946 ft | 371 kts | 262° |
| 2026-05-05 05:49 | 35.67421 | -89.41531 | 33939 ft | 370 kts | 262° |
| 2026-05-05 05:50 | 35.65636 | -89.47458 | 33937 ft | 369 kts | 262° |
| 2026-05-05 05:50 | 35.63851 | -89.53368 | 33940 ft | 368 kts | 262° |
| 2026-05-05 05:51 | 35.62061 | -89.59266 | 33930 ft | 368 kts | 262° |
| 2026-05-05 05:51 | 35.60285 | -89.65116 | 33929 ft | 368 kts | 262° |
| 2026-05-05 05:52 | 35.58496 | -89.71005 | 33925 ft | 368 kts | 262° |
| 2026-05-05 05:52 | 35.56706 | -89.76894 | 33924 ft | 368 kts | 262° |
| 2026-05-05 05:53 | 35.55754 | -89.80013 | 33919 ft | 368 kts | 262° |
| 2026-05-05 05:53 | 35.53956 | -89.85894 | 33928 ft | 368 kts | 262° |
| 2026-05-05 05:54 | 35.52770 | -89.89756 | 33927 ft | 368 kts | 262° |
| 2026-05-05 05:54 | 35.51596 | -89.93578 | 33926 ft | 368 kts | 262° |
| 2026-05-05 05:55 | 35.51061 | -89.95323 | 33927 ft | 368 kts | 262° |
| 2026-05-05 05:55 | 35.50783 | -89.96229 | 33926 ft | 368 kts | 262° |
| 2026-05-05 05:56 | 35.49312 | -90.01031 | 33857 ft | 368 kts | 261° |
| 2026-05-05 05:56 | 35.47504 | -90.06926 | 33867 ft | 370 kts | 261° |
| 2026-05-05 05:57 | 35.45687 | -90.12815 | 33873 ft | 371 kts | 260° |
| 2026-05-05 05:57 | 35.43852 | -90.18744 | 33888 ft | 372 kts | 260° |
| 2026-05-05 05:58 | 35.42017 | -90.24678 | 33897 ft | 373 kts | 260° |
| 2026-05-05 05:58 | 35.40173 | -90.30620 | 33905 ft | 373 kts | 260° |
| 2026-05-05 05:59 | 35.38323 | -90.36555 | 33912 ft | 373 kts | 260° |
| 2026-05-05 05:59 | 35.36466 | -90.42500 | 33884 ft | 374 kts | 260° |
| 2026-05-05 06:00 | 35.34609 | -90.48461 | 33894 ft | 375 kts | 260° |
| 2026-05-05 06:00 | 35.32747 | -90.54431 | 33903 ft | 376 kts | 260° |
| 2026-05-05 06:01 | 35.30873 | -90.60409 | 33909 ft | 376 kts | 260° |
| 2026-05-05 06:01 | 35.29310 | -90.65387 | 33915 ft | 376 kts | 260° |
| 2026-05-05 06:02 | 35.27426 | -90.71370 | 33918 ft | 377 kts | 260° |
| 2026-05-05 06:02 | 35.25538 | -90.77346 | 33908 ft | 377 kts | 260° |
| 2026-05-05 06:03 | 35.24308 | -90.81234 | 33876 ft | 377 kts | 260° |
| 2026-05-05 06:03 | 35.23425 | -90.84161 | 33884 ft | 375 kts | 261° |
| 2026-05-05 06:04 | 35.21540 | -90.90131 | 33897 ft | 377 kts | 260° |
| 2026-05-05 06:04 | 35.20487 | -90.93388 | 33904 ft | 378 kts | 260° |
| 2026-05-05 06:05 | 35.18825 | -90.98543 | 33912 ft | 378 kts | 260° |
| 2026-05-05 06:05 | 35.16918 | -91.04516 | 33918 ft | 377 kts | 260° |
| 2026-05-05 06:06 | 35.15016 | -91.10496 | 33926 ft | 377 kts | 260° |
| 2026-05-05 06:06 | 35.13110 | -91.16477 | 33906 ft | 377 kts | 260° |
| 2026-05-05 06:07 | 35.11834 | -91.20462 | 33920 ft | 377 kts | 260° |
| 2026-05-05 06:08 | 35.10443 | -91.24793 | 33925 ft | 377 kts | 260° |
| 2026-05-05 06:08 | 35.08756 | -91.30063 | 33927 ft | 377 kts | 260° |
| 2026-05-05 06:09 | 35.06853 | -91.35989 | 33929 ft | 377 kts | 260° |
| 2026-05-05 06:09 | 35.04932 | -91.41939 | 33921 ft | 377 kts | 260° |
| 2026-05-05 06:10 | 35.03007 | -91.47900 | 33936 ft | 377 kts | 260° |